Time;durP1;ratioP1;P1;durP2;ratioP2;P2;SDS_P1;SDS_P2;PMS_P1;PMS_P2;Temp;Humidity;BMP_temperature;BMP_pressure;BME280_temperature;BME280_humidity;BME280_pressure;Samples;Min_cycle;Max_cycle;Signal;HPM_P1;HPM_P2
2022/03/27 00:04:16;;;;;;;58.13;26.43;;;2.40;99.90;;;;;;10048299;29;20225;-75
2022/03/27 00:09:39;;;;;;;62.73;28.43;;;2.40;99.90;;;;;;10062700;29;20539;-76
2022/03/27 00:15:01;;;;;;;55.83;26.17;;;2.40;99.90;;;;;;10029123;29;20592;-77
2022/03/27 00:20:28;;;;;;;56.97;27.43;;;2.40;99.90;;;;;;10090174;29;20237;-79
2022/03/27 00:25:50;;;;;;;67.63;32.70;;;2.30;99.90;;;;;;10099105;29;20218;-76
2022/03/27 00:31:12;;;;;;;67.03;30.47;;;2.30;99.90;;;;;;10066218;29;20218;-76
2022/03/27 00:36:34;;;;;;;53.27;24.03;;;2.30;99.90;;;;;;10080864;29;20268;-76
2022/03/27 00:41:56;;;;;;;48.10;23.20;;;2.40;99.90;;;;;;10043089;29;20242;-76
2022/03/27 00:47:18;;;;;;;56.87;27.60;;;2.30;99.90;;;;;;10043397;29;20286;-76
2022/03/27 00:52:40;;;;;;;134.87;62.20;;;2.30;99.90;;;;;;10043062;29;20206;-76
2022/03/27 00:58:03;;;;;;;155.80;72.17;;;2.10;99.90;;;;;;10042390;29;20521;-75
2022/03/27 01:03:26;;;;;;;268.93;127.00;;;2.10;99.90;;;;;;10054614;29;20241;-81
2022/03/27 01:14:32;;;;;;;202.63;102.00;;;2.00;99.90;;;;;;10026563;29;20274;-77
2022/03/27 01:19:56;;;;;;;144.63;73.80;;;2.00;99.90;;;;;;10078862;29;20299;-76
2022/03/27 01:25:18;;;;;;;123.03;60.63;;;1.90;99.90;;;;;;10100479;29;20218;-77
2022/03/27 01:30:41;;;;;;;102.50;47.83;;;1.90;99.90;;;;;;10044238;29;20217;-77
2022/03/27 01:36:03;;;;;;;85.93;40.10;;;1.70;99.90;;;;;;10063389;29;20475;-76
2022/03/27 01:41:24;;;;;;;79.77;35.83;;;1.70;99.90;;;;;;10079130;29;20305;-76
2022/03/27 01:46:47;;;;;;;75.80;33.53;;;1.70;99.90;;;;;;10079880;29;20214;-75
2022/03/27 01:52:08;;;;;;;74.90;33.10;;;1.60;99.90;;;;;;10079976;29;20213;-78
2022/03/27 01:57:30;;;;;;;61.67;27.97;;;1.70;99.90;;;;;;10079535;29;20253;-77
2022/03/27 02:02:53;;;;;;;58.97;26.73;;;1.60;99.90;;;;;;10083087;29;20244;-75
2022/03/27 02:08:15;;;;;;;57.50;25.70;;;1.70;99.90;;;;;;10070650;29;20769;-80
2022/03/27 02:13:50;;;;;;;67.47;31.53;;;1.70;99.90;;;;;;10087299;29;20281;-75
2022/03/27 02:19:12;;;;;;;67.60;30.43;;;1.50;99.90;;;;;;10100021;29;20213;-75
2022/03/27 02:24:34;;;;;;;70.23;30.90;;;1.50;99.90;;;;;;10112733;29;20249;-77
2022/03/27 02:29:56;;;;;;;65.63;29.20;;;1.50;99.90;;;;;;10069397;29;20530;-77
2022/03/27 02:35:18;;;;;;;70.97;31.70;;;1.40;99.90;;;;;;10069789;29;20248;-79
2022/03/27 02:40:43;;;;;;;70.73;31.50;;;1.40;99.90;;;;;;10069896;29;20249;-77
2022/03/27 02:46:08;;;;;;;68.60;34.27;;;1.40;99.90;;;;;;10085070;29;20264;-76
2022/03/27 02:51:30;;;;;;;80.63;37.80;;;1.30;99.90;;;;;;10069553;29;20289;-76
2022/03/27 02:56:52;;;;;;;63.87;27.23;;;1.30;99.90;;;;;;10059711;29;20430;-75
2022/03/27 03:02:14;;;;;;;50.70;24.63;;;1.30;99.90;;;;;;10031000;29;20548;-77
2022/03/27 03:07:41;;;;;;;49.77;24.43;;;1.30;99.90;;;;;;10040855;29;20671;-78
2022/03/27 03:13:03;;;;;;;51.40;24.23;;;;;;;;;;10084032;29;20239;-75
2022/03/27 03:18:25;;;;;;;44.93;22.77;;;1.10;99.90;;;;;;10092130;29;20387;-75
2022/03/27 03:23:48;;;;;;;61.70;26.63;;;1.00;99.90;;;;;;10116515;29;20293;-76
2022/03/27 03:29:09;;;;;;;52.97;24.53;;;1.00;99.90;;;;;;10083800;29;20208;-75
2022/03/27 03:34:31;;;;;;;53.87;24.17;;;1.00;99.90;;;;;;10067739;29;20248;-76
2022/03/27 03:39:53;;;;;;;51.90;24.50;;;1.00;99.90;;;;;;10084263;29;20464;-78
2022/03/27 03:45:15;;;;;;;58.70;25.43;;;1.00;99.90;;;;;;10067430;29;20220;-76
2022/03/27 03:50:37;;;;;;;52.67;25.83;;;0.90;99.90;;;;;;10087235;29;20237;-77
2022/03/27 03:56:00;;;;;;;59.67;26.77;;;0.90;99.90;;;;;;10078849;29;20212;-75
2022/03/27 04:01:22;;;;;;;55.77;26.10;;;0.70;99.90;;;;;;10045375;29;20282;-75
2022/03/27 04:06:44;;;;;;;60.20;26.17;;;0.70;99.90;;;;;;10074931;29;20553;-76
2022/03/27 04:12:07;;;;;;;58.60;26.47;;;0.80;99.90;;;;;;10030981;29;20543;-77
2022/03/27 04:17:29;;;;;;;51.77;26.27;;;0.80;99.90;;;;;;10044820;29;20263;-76
2022/03/27 04:22:51;;;;;;;62.37;25.37;;;0.80;99.90;;;;;;10044404;29;20250;-77
2022/03/27 04:28:12;;;;;;;64.13;28.73;;;0.80;99.90;;;;;;10040705;29;20216;-76
2022/03/27 04:33:35;;;;;;;56.33;27.87;;;0.70;99.90;;;;;;10057472;29;20274;-75
2022/03/27 04:38:56;;;;;;;60.50;27.80;;;0.70;99.90;;;;;;10080799;29;20239;-75
2022/03/27 04:44:18;;;;;;;61.17;27.30;;;0.60;99.90;;;;;;10081270;29;20217;-76
2022/03/27 04:49:40;;;;;;;53.17;26.43;;;0.50;99.90;;;;;;10080881;29;20223;-82
2022/03/27 04:55:03;;;;;;;53.80;26.97;;;0.60;99.90;;;;;;10087512;29;20212;-75
2022/03/27 05:00:25;;;;;;;51.57;26.00;;;0.60;99.90;;;;;;10069595;29;20292;-78
2022/03/27 05:05:47;;;;;;;54.10;28.73;;;0.70;99.90;;;;;;10065085;29;20212;-75
2022/03/27 05:11:09;;;;;;;68.83;34.33;;;0.90;99.90;;;;;;10056520;29;20509;-76
2022/03/27 05:16:31;;;;;;;66.53;30.90;;;1.10;99.90;;;;;;10059557;29;20267;-76
2022/03/27 05:21:53;;;;;;;60.67;31.70;;;1.00;99.90;;;;;;10109849;29;20239;-76
2022/03/27 05:27:19;;;;;;;64.20;31.90;;;1.10;99.90;;;;;;10087149;29;20218;-76
2022/03/27 05:32:41;;;;;;;62.00;31.80;;;1.10;99.90;;;;;;10064165;29;20228;-75
2022/03/27 05:38:02;;;;;;;60.97;30.37;;;1.20;99.90;;;;;;10079146;29;20307;-76
2022/03/27 05:43:24;;;;;;;76.97;33.93;;;1.50;99.90;;;;;;10080205;29;20240;-75
2022/03/27 05:48:46;;;;;;;71.23;35.70;;;1.70;99.90;;;;;;10078996;29;20254;-77
2022/03/27 05:54:08;;;;;;;67.67;33.60;;;2.00;99.90;;;;;;10079803;29;20220;-76
2022/03/27 05:59:30;;;;;;;70.53;35.67;;;2.00;99.90;;;;;;10063256;29;20408;-75
2022/03/27 06:04:53;;;;;;;69.93;37.57;;;2.00;99.90;;;;;;10079172;29;20507;-80
2022/03/27 06:10:18;;;;;;;75.90;40.90;;;2.10;99.90;;;;;;10079600;29;20310;-80
2022/03/27 06:15:40;;;;;;;85.03;43.53;;;2.30;99.90;;;;;;10065768;29;20210;-76
2022/03/27 06:21:03;;;;;;;102.90;54.67;;;2.50;99.90;;;;;;10051315;29;20248;-76
2022/03/27 06:26:24;;;;;;;102.63;52.57;;;2.60;99.90;;;;;;10065401;29;20234;-75
2022/03/27 06:31:48;;;;;;;102.80;50.57;;;2.70;99.90;;;;;;10078681;29;20210;-77
2022/03/27 06:37:10;;;;;;;120.67;56.20;;;2.90;99.90;;;;;;10077875;29;20605;-75
2022/03/27 06:42:31;;;;;;;112.20;51.37;;;3.10;99.90;;;;;;10079399;29;20232;-76
2022/03/27 06:47:54;;;;;;;86.70;43.00;;;3.40;99.90;;;;;;10064929;29;20264;-79
2022/03/27 06:53:20;;;;;;;79.87;41.67;;;3.80;99.90;;;;;;10085973;29;20521;-77
2022/03/27 06:58:43;;;;;;;87.20;43.57;;;4.40;99.90;;;;;;10085889;29;20216;-78
2022/03/27 07:04:05;;;;;;;61.20;33.37;;;5.10;99.90;;;;;;10085900;29;20232;-76
2022/03/27 07:09:27;;;;;;;52.60;25.97;;;5.40;99.90;;;;;;10085284;29;20538;-77
2022/03/27 07:14:49;;;;;;;35.90;17.63;;;6.10;99.90;;;;;;10085110;29;20231;-76
2022/03/27 07:20:26;;;;;;;24.00;11.20;;;;;;;;;;10106890;29;20239;-78
2022/03/27 07:25:52;;;;;;;16.63;6.18;;;10.30;72.70;;;;;;10087684;29;20532;-81
2022/03/27 07:31:14;;;;;;;11.52;5.97;;;11.70;47.60;;;;;;10034080;29;20379;-80
2022/03/27 07:36:36;;;;;;;14.30;4.63;;;12.40;40.70;;;;;;10083985;29;20565;-77
2022/03/27 07:41:58;;;;;;;9.90;4.97;;;12.30;34.80;;;;;;10031703;29;20238;-78
2022/03/27 07:47:20;;;;;;;11.13;5.07;;;12.60;33.10;;;;;;10045102;29;20210;-77
2022/03/27 07:52:43;;;;;;;10.15;5.07;;;12.80;30.70;;;;;;10048138;29;20461;-78
2022/03/27 07:58:05;;;;;;;6.97;3.70;;;12.70;29.60;;;;;;10046417;29;20209;-78
2022/03/27 08:03:28;;;;;;;12.27;6.20;;;13.00;27.40;;;;;;10045041;29;20232;-78
2022/03/27 08:08:49;;;;;;;8.43;4.05;;;13.20;25.70;;;;;;10064342;29;20222;-77
2022/03/27 08:14:12;;;;;;;5.90;3.28;;;12.90;25.80;;;;;;10083160;29;20220;-77
2022/03/27 08:19:34;;;;;;;5.85;2.90;;;13.40;25.10;;;;;;10098236;29;20220;-79
2022/03/27 08:24:56;;;;;;;9.73;3.58;;;14.00;23.70;;;;;;10107053;29;20380;-79
2022/03/27 08:30:18;;;;;;;24.65;13.48;;;14.20;23.70;;;;;;10083245;29;20467;-81
2022/03/27 08:35:41;;;;;;;7.43;4.03;;;13.70;23.10;;;;;;10081444;29;20474;-78
2022/03/27 08:41:05;;;;;;;7.00;2.53;;;13.10;23.60;;;;;;10065510;29;20248;-78
2022/03/27 08:46:29;;;;;;;8.90;3.45;;;12.00;24.90;;;;;;10081754;29;20307;-79
2022/03/27 08:52:01;;;;;;;12.15;3.72;;;11.70;26.70;;;;;;10081072;29;20218;-80
2022/03/27 08:57:49;;;;;;;11.00;4.60;;;11.90;27.50;;;;;;10081651;29;20229;-81
2022/03/27 09:03:12;;;;;;;6.13;4.20;;;12.40;27.30;;;;;;10064850;29;20247;-77
2022/03/27 09:08:34;;;;;;;9.02;3.58;;;12.70;26.80;;;;;;10064686;29;20542;-77
2022/03/27 09:13:56;;;;;;;11.80;3.00;;;12.40;27.00;;;;;;10080000;29;20283;-78
2022/03/27 09:19:39;;;;;;;12.75;2.63;;;12.50;26.70;;;;;;10093747;29;20207;-78
2022/03/27 09:25:04;;;;;;;4.68;2.75;;;12.20;25.80;;;;;;10103381;29;20221;-79
2022/03/27 09:30:36;;;;;;;6.10;2.60;;;13.20;24.60;;;;;;10080927;29;20217;-77
2022/03/27 09:36:11;;;;;;;7.80;3.20;;;13.70;23.20;;;;;;10040945;29;20257;-77
2022/03/27 09:41:39;;;;;;;7.47;2.67;;;14.10;22.40;;;;;;10041286;29;20238;-79
2022/03/27 09:47:10;;;;;;;7.18;3.47;;;13.60;22.60;;;;;;10042772;29;20500;-79
2022/03/27 09:52:37;;;;;;;7.10;3.47;;;12.80;23.90;;;;;;10028720;29;20284;-78
2022/03/27 09:57:58;;;;;;;8.77;3.13;;;12.20;24.60;;;;;;10057142;29;20213;-80
2022/03/27 10:03:20;;;;;;;12.80;4.65;;;11.70;24.80;;;;;;10043067;29;20509;-77
2022/03/27 10:08:42;;;;;;;6.17;3.70;;;11.40;25.40;;;;;;10045177;29;20265;-80
2022/03/27 10:14:06;;;;;;;7.23;3.53;;;11.20;24.30;;;;;;10041504;29;20213;-79
2022/03/27 10:19:38;;;;;;;11.40;3.13;;;10.80;25.00;;;;;;10062925;29;20209;-76
2022/03/27 10:25:03;;;;;;;7.30;3.10;;;10.90;25.50;;;;;;10085844;29;20237;-79
2022/03/27 10:30:25;;;;;;;12.23;5.00;;;11.20;24.70;;;;;;10083311;29;20240;-78
2022/03/27 10:35:52;;;;;;;8.93;3.60;;;12.20;24.10;;;;;;10087728;29;20241;-79
2022/03/27 10:41:49;;;;;;;13.90;5.82;;;12.90;22.60;;;;;;10070257;29;20246;-81
2022/03/27 10:47:19;;;;;;;9.63;4.20;;;13.30;21.30;;;;;;10086474;29;20258;-79
2022/03/27 10:52:50;;;;;;;11.55;4.53;;;13.40;21.10;;;;;;10084936;29;20208;-78
2022/03/27 10:58:31;;;;;;;4.57;3.15;;;13.30;21.10;;;;;;10086850;29;20226;-76
2022/03/27 11:04:05;;;;;;;9.30;3.50;;;13.30;20.90;;;;;;10069244;29;20305;-76
2022/03/27 11:09:37;;;;;;;7.53;3.20;;;13.60;20.80;;;;;;10085509;29;20216;-77
2022/03/27 11:15:06;;;;;;;7.60;5.13;;;13.80;20.50;;;;;;10068943;29;20214;-77
2022/03/27 11:20:31;;;;;;;7.07;2.78;;;14.30;19.60;;;;;;10105834;29;20408;-81
2022/03/27 11:25:53;;;;;;;7.82;3.92;;;14.80;18.90;;;;;;10084629;29;20225;-76
2022/03/27 11:31:18;;;;;;;4.95;2.58;;;14.80;18.70;;;;;;10067932;29;20292;-78
2022/03/27 11:36:45;;;;;;;13.00;4.70;;;14.90;18.60;;;;;;10084131;29;20248;-76
2022/03/27 11:42:38;;;;;;;5.45;2.78;;;14.30;19.10;;;;;;10083070;29;20262;-78
2022/03/27 11:48:00;;;;;;;5.68;3.47;;;14.30;20.10;;;;;;10072799;29;20251;-77
2022/03/27 11:53:33;;;;;;;7.40;3.22;;;14.20;20.60;;;;;;10045557;29;20276;-79
2022/03/27 11:59:03;;;;;;;6.20;3.20;;;14.50;20.90;;;;;;10045671;29;20215;-80
2022/03/27 12:04:26;;;;;;;5.05;2.97;;;15.20;20.20;;;;;;10045248;29;20247;-78
2022/03/27 12:09:58;;;;;;;6.07;2.92;;;15.80;19.30;;;;;;10071821;29;20244;-78
2022/03/27 12:15:20;;;;;;;20.52;3.65;;;16.00;18.50;;;;;;10082258;29;20253;-83
2022/03/27 12:20:48;;;;;;;12.05;5.75;;;16.10;18.60;;;;;;10093307;29;20249;-82
2022/03/27 12:31:54;;;;;;;11.88;7.10;;;15.40;19.10;;;;;;10081032;29;20208;-78
2022/03/27 12:37:19;;;;;;;7.43;2.95;;;15.00;19.60;;;;;;10081555;29;20310;-77
2022/03/27 12:42:49;;;;;;;6.30;3.65;;;14.80;19.60;;;;;;10081896;29;20255;-78
2022/03/27 12:48:17;;;;;;;6.15;3.22;;;14.40;20.30;;;;;;10072847;29;20214;-81
2022/03/27 12:53:39;;;;;;;6.43;3.20;;;14.10;20.60;;;;;;10042839;29;20217;-80
2022/03/27 12:59:27;;;;;;;7.93;4.15;;;13.90;21.00;;;;;;10043273;29;20213;-78
2022/03/27 13:05:00;;;;;;;5.45;2.90;;;14.20;21.00;;;;;;10026804;29;20237;-78
2022/03/27 13:10:24;;;;;;;5.25;3.03;;;15.30;19.90;;;;;;10057735;29;20432;-77
2022/03/27 13:15:52;;;;;;;8.18;2.65;;;;;;;;;;10080866;29;20212;-79
2022/03/27 13:21:15;;;;;;;5.78;2.38;;;16.70;18.40;;;;;;10087922;29;20266;-77
2022/03/27 13:26:39;;;;;;;13.40;3.75;;;16.90;18.40;;;;;;10080758;29;20215;-77
2022/03/27 13:32:01;;;;;;;7.25;3.47;;;16.50;18.50;;;;;;10079269;29;20212;-77
2022/03/27 13:37:23;;;;;;;22.48;9.77;;;16.50;18.70;;;;;;10078799;29;20306;-78
2022/03/27 13:43:00;;;;;;;13.82;7.60;;;16.50;18.70;;;;;;10080102;29;20237;-81
2022/03/27 13:48:22;;;;;;;7.47;3.88;;;16.50;18.90;;;;;;10068178;29;20209;-82
2022/03/27 13:53:45;;;;;;;13.30;4.20;;;16.50;19.00;;;;;;10041577;29;20289;-77
2022/03/27 13:59:08;;;;;;;19.45;3.10;;;16.30;18.60;;;;;;10039962;29;20209;-77
2022/03/27 14:04:31;;;;;;;6.43;2.15;;;16.00;19.40;;;;;;10024811;29;20242;-80
2022/03/27 14:09:52;;;;;;;3.90;2.50;;;15.60;19.70;;;;;;10068860;29;20507;-77
2022/03/27 14:15:18;;;;;;;8.10;2.22;;;15.40;20.00;;;;;;10078773;29;20212;-82
2022/03/27 14:20:41;;;;;;;5.07;2.03;;;15.00;20.90;;;;;;10097986;29;20259;-77
2022/03/27 14:26:04;;;;;;;4.10;1.80;;;14.70;21.30;;;;;;10093950;29;20305;-79
2022/03/27 14:31:26;;;;;;;10.05;5.32;;;14.50;22.10;;;;;;10078959;29;20208;-79
2022/03/27 14:36:50;;;;;;;11.13;4.55;;;14.30;22.50;;;;;;10078713;29;20252;-78
2022/03/27 14:42:12;;;;;;;14.80;6.53;;;14.20;23.20;;;;;;10062300;29;20238;-76
2022/03/27 14:47:36;;;;;;;6.32;3.63;;;14.00;24.10;;;;;;10078371;29;20245;-78
2022/03/27 14:52:58;;;;;;;6.93;2.72;;;14.20;24.60;;;;;;10078718;29;20209;-77
2022/03/27 14:58:20;;;;;;;4.95;2.55;;;14.30;24.80;;;;;;10062418;29;20271;-77
2022/03/27 15:03:42;;;;;;;13.23;3.25;;;14.50;25.40;;;;;;10062221;29;20248;-83
2022/03/27 15:09:07;;;;;;;4.85;3.03;;;14.40;25.80;;;;;;10064392;29;20217;-79
2022/03/27 15:14:29;;;;;;;4.78;2.92;;;14.20;26.50;;;;;;10084400;29;20450;-78
2022/03/27 15:19:51;;;;;;;4.80;2.75;;;14.20;27.50;;;;;;10095609;29;20203;-77
2022/03/27 15:25:13;;;;;;;8.32;2.85;;;14.10;27.80;;;;;;10107264;29;20413;-76
2022/03/27 15:30:36;;;;;;;10.48;3.83;;;14.10;28.50;;;;;;10086527;29;20232;-77
2022/03/27 15:35:58;;;;;;;4.88;2.50;;;14.00;29.40;;;;;;10099487;29;20225;-77
2022/03/27 15:41:22;;;;;;;5.47;3.40;;;14.00;29.80;;;;;;10073161;29;20236;-82
2022/03/27 15:46:45;;;;;;;6.93;3.10;;;14.00;30.60;;;;;;10070443;29;20209;-77
2022/03/27 15:52:08;;;;;;;5.00;3.13;;;13.80;31.70;;;;;;10083231;29;20273;-77
2022/03/27 15:57:30;;;;;;;6.82;3.13;;;13.70;33.40;;;;;;10068485;29;20214;-77
2022/03/27 16:02:52;;;;;;;7.35;2.90;;;13.70;33.70;;;;;;10086692;29;20276;-77
2022/03/27 16:08:14;;;;;;;7.25;2.85;;;13.70;34.00;;;;;;10074039;29;20527;-78
2022/03/27 16:13:36;;;;;;;4.15;2.30;;;13.60;31.80;;;;;;10049567;29;20462;-79
2022/03/27 16:18:58;;;;;;;7.78;2.33;;;13.40;30.90;;;;;;10073225;29;20213;-81
2022/03/27 16:24:20;;;;;;;7.65;3.47;;;13.30;30.40;;;;;;10112637;29;20244;-81
2022/03/27 16:29:43;;;;;;;10.00;3.17;;;13.20;30.50;;;;;;10082997;29;20267;-77
2022/03/27 16:35:07;;;;;;;5.13;2.78;;;13.10;31.20;;;;;;10082132;29;20236;-78
2022/03/27 16:40:29;;;;;;;5.57;3.08;;;13.00;31.80;;;;;;10081924;29;20228;-79
2022/03/27 16:45:52;;;;;;;5.20;2.55;;;12.80;31.30;;;;;;10082478;29;20302;-78
2022/03/27 16:51:15;;;;;;;5.45;2.58;;;12.70;31.40;;;;;;10046232;29;20546;-77
2022/03/27 16:56:37;;;;;;;5.28;2.65;;;12.60;31.30;;;;;;10043690;29;20210;-79
2022/03/27 17:01:59;;;;;;;5.13;2.42;;;12.40;30.80;;;;;;10043304;29;20245;-82
2022/03/27 17:07:23;;;;;;;7.93;2.33;;;12.30;29.60;;;;;;10051187;29;20212;-82
2022/03/27 17:12:45;;;;;;;3.63;2.10;;;12.10;28.80;;;;;;10080830;29;20240;-78
2022/03/27 17:18:07;;;;;;;4.30;2.35;;;12.00;28.50;;;;;;10073576;29;20257;-80
2022/03/27 17:23:29;;;;;;;5.47;2.00;;;12.00;27.90;;;;;;10115965;29;20238;-77
2022/03/27 17:28:51;;;;;;;4.63;1.70;;;11.80;27.60;;;;;;10079508;29;20255;-79
2022/03/27 17:34:15;;;;;;;2.72;1.88;;;11.70;27.60;;;;;;10066595;29;20535;-77
2022/03/27 17:39:37;;;;;;;5.85;2.33;;;11.60;27.90;;;;;;10080864;29;20225;-77
2022/03/27 17:44:59;;;;;;;2.88;1.40;;;11.60;27.90;;;;;;10086434;29;20261;-79
2022/03/27 17:50:21;;;;;;;4.03;2.05;;;11.60;27.20;;;;;;10031102;29;20282;-78
2022/03/27 17:55:43;;;;;;;3.33;1.77;;;11.50;26.60;;;;;;10042550;29;20574;-81
2022/03/27 18:01:05;;;;;;;3.57;2.60;;;11.50;26.10;;;;;;10028684;29;20219;-82
2022/03/27 18:06:28;;;;;;;4.00;2.07;;;11.30;26.10;;;;;;10053780;29;20205;-77
2022/03/27 18:11:49;;;;;;;3.40;1.80;;;11.20;26.50;;;;;;10066056;29;20225;-79
2022/03/27 18:17:14;;;;;;;5.43;2.00;;;11.10;26.80;;;;;;10071419;29;20211;-82
2022/03/27 18:22:36;;;;;;;3.43;2.03;;;10.90;27.10;;;;;;10074356;29;20339;-77
2022/03/27 18:27:59;;;;;;;105.60;71.70;;;10.90;27.40;;;;;;10111017;29;20205;-82
2022/03/27 18:33:20;;;;;;;19.77;12.13;;;10.80;27.90;;;;;;10102905;29;20266;-81
2022/03/27 18:38:42;;;;;;;25.73;20.53;;;10.70;28.30;;;;;;10081430;29;20563;-80
2022/03/27 18:44:05;;;;;;;7.10;4.60;;;10.70;28.50;;;;;;10082775;29;20268;-79
2022/03/27 18:49:27;;;;;;;3.47;2.17;;;10.60;28.90;;;;;;10056103;29;20452;-78
2022/03/27 18:54:49;;;;;;;6.43;3.40;;;10.50;29.50;;;;;;10048175;29;20278;-78
2022/03/27 19:00:11;;;;;;;6.97;4.50;;;10.40;30.10;;;;;;10031959;29;20419;-80
2022/03/27 19:05:33;;;;;;;8.03;4.67;;;10.30;31.10;;;;;;10049051;29;20242;-78
2022/03/27 19:10:55;;;;;;;8.80;4.87;;;10.20;31.80;;;;;;10083553;29;20248;-78
2022/03/27 19:16:18;;;;;;;9.00;5.03;;;10.10;32.70;;;;;;10085263;29;20209;-83
2022/03/27 19:21:45;;;;;;;12.70;8.40;;;10.10;33.70;;;;;;10078115;29;20479;-76
2022/03/27 19:27:07;;;;;;;9.27;5.60;;;10.10;34.90;;;;;;10069375;29;20241;-77
2022/03/27 19:32:29;;;;;;;6.63;3.50;;;10.00;36.60;;;;;;10085059;29;20207;-77
2022/03/27 19:37:51;;;;;;;10.90;4.63;;;10.00;38.20;;;;;;10046296;29;20245;-76
2022/03/27 19:43:13;;;;;;;7.43;3.67;;;9.90;40.60;;;;;;10045244;29;20596;-77
2022/03/27 19:48:36;;;;;;;5.80;3.53;;;9.80;44.10;;;;;;10072160;29;20209;-77
2022/03/27 19:53:58;;;;;;;7.43;3.53;;;9.70;47.00;;;;;;10085181;29;20402;-77
2022/03/27 19:59:20;;;;;;;7.53;3.20;;;9.60;50.20;;;;;;10084107;29;20231;-78
2022/03/27 20:04:43;;;;;;;6.83;2.80;;;9.60;53.10;;;;;;10083527;29;20420;-77
2022/03/27 20:10:08;;;;;;;6.17;3.07;;;9.60;56.30;;;;;;10082888;29;20218;-77
2022/03/27 20:15:30;;;;;;;8.03;3.87;;;9.60;59.20;;;;;;10081217;29;20213;-77
2022/03/27 20:20:52;;;;;;;8.17;4.00;;;9.50;63.70;;;;;;10095861;29;20238;-77
2022/03/27 20:26:16;;;;;;;6.07;4.07;;;9.40;67.50;;;;;;10096579;29;20247;-76
2022/03/27 20:31:38;;;;;;;8.93;3.53;;;9.40;72.10;;;;;;10082496;29;20234;-76
2022/03/27 20:37:00;;;;;;;6.00;3.50;;;9.30;75.70;;;;;;10079936;29;20281;-76
2022/03/27 20:42:22;;;;;;;7.47;3.10;;;9.20;79.80;;;;;;10080809;29;20482;-79
2022/03/27 20:47:45;;;;;;;5.23;3.53;;;9.20;83.40;;;;;;10061256;29;20210;-76
2022/03/27 20:53:08;;;;;;;26.20;17.83;;;9.10;86.20;;;;;;10050396;29;20206;-77
2022/03/27 20:58:31;;;;;;;19.40;11.93;;;9.10;88.70;;;;;;10054931;29;20239;-79
2022/03/27 21:03:52;;;;;;;8.80;4.57;;;9.10;90.80;;;;;;10049961;29;20240;-77
2022/03/27 21:09:15;;;;;;;10.70;3.50;;;9.10;91.40;;;;;;10063583;29;20217;-76
2022/03/27 21:14:37;;;;;;;6.80;3.47;;;9.10;92.50;;;;;;10079827;29;20392;-78
2022/03/27 21:19:59;;;;;;;9.37;3.83;;;9.00;93.50;;;;;;10098163;29;20284;-80
2022/03/27 21:25:22;;;;;;;9.03;3.90;;;9.00;95.00;;;;;;10099316;29;20260;-81
2022/03/27 21:30:44;;;;;;;7.10;3.47;;;9.00;96.00;;;;;;10062924;29;20270;-77
2022/03/27 21:39:23;;;;;;;6.40;3.50;;;8.90;96.80;;;;;;10514553;28;20574;-76
2022/03/27 21:44:45;;;;;;;8.77;4.20;;;8.80;98.80;;;;;;10499343;28;20285;-75
2022/03/27 21:50:08;;;;;;;9.73;4.07;;;8.70;99.20;;;;;;10512729;28;20243;-81
2022/03/27 21:55:30;;;;;;;8.90;3.60;;;8.70;99.90;;;;;;10498446;28;20196;-75
2022/03/27 22:00:51;;;;;;;14.33;4.63;;;8.70;99.90;;;;;;10513478;28;20220;-74
2022/03/27 22:06:13;;;;;;;12.30;4.20;;;8.60;99.90;;;;;;10511617;28;20226;-78
2022/03/27 22:11:36;;;;;;;8.73;3.53;;;8.60;99.90;;;;;;10470762;28;20561;-76
2022/03/27 22:16:58;;;;;;;14.63;4.77;;;8.50;99.90;;;;;;10471433;28;20202;-78
2022/03/27 22:22:20;;;;;;;10.07;4.50;;;8.50;99.90;;;;;;10551228;28;20191;-78
2022/03/27 22:27:42;;;;;;;8.03;3.90;;;8.40;99.90;;;;;;10515335;28;20410;-75
2022/03/27 22:33:04;;;;;;;12.03;4.57;;;8.40;99.90;;;;;;10511558;28;20195;-75
2022/03/27 22:38:26;;;;;;;14.13;4.70;;;8.30;99.90;;;;;;10511358;28;20224;-77
2022/03/27 22:43:47;;;;;;;13.63;4.77;;;8.30;99.90;;;;;;10510762;28;20509;-75
2022/03/27 22:49:13;;;;;;;18.83;5.50;;;8.30;99.90;;;;;;10491246;28;20230;-75
2022/03/27 22:54:35;;;;;;;17.33;5.80;;;8.20;99.90;;;;;;10483071;28;20190;-75
2022/03/27 22:59:58;;;;;;;14.63;5.73;;;8.20;99.90;;;;;;10483542;28;20208;-77
2022/03/27 23:05:23;;;;;;;17.50;5.47;;;8.10;99.90;;;;;;10482570;28;20222;-76
2022/03/27 23:10:44;;;;;;;19.03;4.93;;;8.10;99.90;;;;;;10483016;28;20205;-76
2022/03/27 23:16:06;;;;;;;12.93;4.57;;;8.00;99.90;;;;;;10482751;28;20273;-78
2022/03/27 23:21:28;;;;;;;11.47;4.90;;;8.00;99.90;;;;;;10514367;28;20200;-82
2022/03/27 23:26:50;;;;;;;13.53;5.30;;;7.90;99.90;;;;;;10490621;28;20249;-75
2022/03/27 23:32:13;;;;;;;15.77;4.83;;;7.90;99.90;;;;;;10486299;28;20220;-76
2022/03/27 23:37:35;;;;;;;10.20;4.97;;;7.90;99.90;;;;;;10451524;28;20228;-75
2022/03/27 23:42:58;;;;;;;12.10;4.53;;;7.80;99.90;;;;;;10482013;28;20199;-80
2022/03/27 23:48:19;;;;;;;19.03;5.37;;;7.70;99.90;;;;;;10482449;28;20221;-75
2022/03/27 23:53:41;;;;;;;17.17;4.97;;;7.70;99.90;;;;;;10481505;28;20514;-75
2022/03/27 23:59:03;;;;;;;12.03;4.63;;;7.70;99.90;;;;;;10480141;28;20189;-75
